Aeroporto :
LOGIN :

Iscrizione | Disclaimer

   EN    FR    IT 

 










Sommario :    VFR   VFR Marginale   IFR   IFR Intensivo   IFR Molto Intensivo
Visibilità : 
Base nubi : 
>= 8 km
>= 3000ft
5 / 8 km
1000 / 3000 ft
1500m / 5 km
500 / 1000 ft
800 / 1500m
200 / 500 ft
< 800m
< 200 ft
Simboli :   Temporali  Nebbia  Neve Forte  Precipitazioni Forti  Vento > 20 kt
SIGMETs :   Varie  Temporali  Ghiacco  Turbolenza  Onda orograficha  Ceneri Vulcaniche







- Altitudine del aeroporto : 44 ft
- Codice IATA : SOU
- Carte del aeroporto


EGHI - Southampton

ULTIMO METAR :
  • 181750Z VRB03KT CAVOK 19/08 Q1022

METARs OBSOLETI :
  • 181720Z VRB03KT CAVOK 19/07 Q1022
  • 181650Z 11004KT 080V140 9999 FEW048 19/08 Q1022
  • 181620Z 13004KT 080V180 9999 FEW048 20/08 Q1021
  • 181550Z 11006KT 010V170 9999 FEW048 20/07 Q1021
  • 181520Z 08006KT 020V160 9999 FEW048 20/06 Q1021

TAF TAF EGHI
Valido dal 18 a 18 ore il 18 a 22 ore UTC


181701Z 1818/1822 08004KT CAVOK
ATIS : +44 23 8062 7103
Nessun NOTAM noto per questo aeroporto.



MetMap, La meteo Aeronautica in un colpo d'occhio ! - Copyright ORBIFLY Dicembre 2007 - Disclaimer

ORBIFLY MET'MAP TEAM :

Programmazione e sviluppo : Alexandra Zaïnal
Concezione e sviluppo : Baudouin d'Aumeries
Co-Programmazione e sviluppo : Marc-Olivier Méhu
Supporto tecnico e logistico : Manuel Goepfert
Aiuto per la traduzione : Arnaldo La Scala

Contatto : metmap@orbifly.com




FONTI E CREDITI :

   NOAA